sensor_id;sensor_type;location;lat;lon;timestamp;temperature;humidity
23371;DHT22;11858;51.056;3.712;2023-10-09T00:01:50;17.70;99.90
23371;DHT22;11858;51.056;3.712;2023-10-09T00:04:17;17.70;99.90
23371;DHT22;11858;51.056;3.712;2023-10-09T00:06:43;17.80;99.90
23371;DHT22;11858;51.056;3.712;2023-10-09T00:09:10;17.80;99.90
23371;DHT22;11858;51.056;3.712;2023-10-09T00:11:51;17.80;99.90
23371;DHT22;11858;51.056;3.712;2023-10-09T00:14:30;17.60;99.90
23371;DHT22;11858;51.056;3.712;2023-10-09T00:16:59;17.60;99.90
23371;DHT22;11858;51.056;3.712;2023-10-09T00:19:37;17.50;99.90
23371;DHT22;11858;51.056;3.712;2023-10-09T00:22:03;17.50;99.90
23371;DHT22;11858;51.056;3.712;2023-10-09T00:24:45;17.50;99.90
23371;DHT22;11858;51.056;3.712;2023-10-09T00:27:11;17.50;99.90
23371;DHT22;11858;51.056;3.712;2023-10-09T00:29:38;17.40;99.90
23371;DHT22;11858;51.056;3.712;2023-10-09T00:32:13;17.40;99.90
23371;DHT22;11858;51.056;3.712;2023-10-09T00:34:42;17.60;99.90
23371;DHT22;11858;51.056;3.712;2023-10-09T00:37:11;17.60;99.90
23371;DHT22;11858;51.056;3.712;2023-10-09T00:39:50;17.40;99.90
23371;DHT22;11858;51.056;3.712;2023-10-09T00:42:23;17.30;99.90
23371;DHT22;11858;51.056;3.712;2023-10-09T00:44:53;17.30;99.90
23371;DHT22;11858;51.056;3.712;2023-10-09T00:47:19;17.30;99.90
23371;DHT22;11858;51.056;3.712;2023-10-09T00:49:54;17.20;99.90
23371;DHT22;11858;51.056;3.712;2023-10-09T00:52:50;17.40;99.90
23371;DHT22;11858;51.056;3.712;2023-10-09T00:55:27;17.40;99.90
23371;DHT22;11858;51.056;3.712;2023-10-09T00:58:04;17.30;99.90
23371;DHT22;11858;51.056;3.712;2023-10-09T01:00:35;17.30;99.90
23371;DHT22;11858;51.056;3.712;2023-10-09T01:03:12;17.20;99.90
23371;DHT22;11858;51.056;3.712;2023-10-09T01:05:48;17.20;99.90
23371;DHT22;11858;51.056;3.712;2023-10-09T01:08:39;17.20;99.90
23371;DHT22;11858;51.056;3.712;2023-10-09T01:11:05;17.10;99.90
23371;DHT22;11858;51.056;3.712;2023-10-09T01:13:38;17.20;99.90
23371;DHT22;11858;51.056;3.712;2023-10-09T01:16:17;17.30;99.90
23371;DHT22;11858;51.056;3.712;2023-10-09T01:18:43;17.30;99.90
23371;DHT22;11858;51.056;3.712;2023-10-09T01:21:10;17.30;99.90
23371;DHT22;11858;51.056;3.712;2023-10-09T01:23:44;17.30;99.90
23371;DHT22;11858;51.056;3.712;2023-10-09T01:26:31;17.30;99.90
23371;DHT22;11858;51.056;3.712;2023-10-09T01:29:31;17.30;99.90
23371;DHT22;11858;51.056;3.712;2023-10-09T01:31:57;17.20;99.90
23371;DHT22;11858;51.056;3.712;2023-10-09T01:34:32;17.20;99.90
23371;DHT22;11858;51.056;3.712;2023-10-09T01:37:11;17.20;99.90
23371;DHT22;11858;51.056;3.712;2023-10-09T01:39:47;17.20;99.90
23371;DHT22;11858;51.056;3.712;2023-10-09T01:42:14;17.10;99.90
23371;DHT22;11858;51.056;3.712;2023-10-09T01:44:53;16.90;99.90
23371;DHT22;11858;51.056;3.712;2023-10-09T01:47:19;17.00;99.90
23371;DHT22;11858;51.056;3.712;2023-10-09T01:49:47;16.90;99.90
23371;DHT22;11858;51.056;3.712;2023-10-09T01:52:18;16.90;99.90
23371;DHT22;11858;51.056;3.712;2023-10-09T01:54:45;16.90;99.90
23371;DHT22;11858;51.056;3.712;2023-10-09T01:57:19;16.90;99.90
23371;DHT22;11858;51.056;3.712;2023-10-09T01:59:49;16.90;99.90
23371;DHT22;11858;51.056;3.712;2023-10-09T02:02:21;17.00;99.90
23371;DHT22;11858;51.056;3.712;2023-10-09T02:04:58;17.10;99.90
23371;DHT22;11858;51.056;3.712;2023-10-09T02:07:51;16.90;99.90
23371;DHT22;11858;51.056;3.712;2023-10-09T02:10:21;16.80;99.90
23371;DHT22;11858;51.056;3.712;2023-10-09T02:12:51;17.00;99.90
23371;DHT22;11858;51.056;3.712;2023-10-09T02:15:37;17.10;99.90
23371;DHT22;11858;51.056;3.712;2023-10-09T02:18:13;16.90;99.90
23371;DHT22;11858;51.056;3.712;2023-10-09T02:23:38;16.80;99.90
23371;DHT22;11858;51.056;3.712;2023-10-09T02:26:09;16.80;99.90
23371;DHT22;11858;51.056;3.712;2023-10-09T02:28:43;16.80;99.90
23371;DHT22;11858;51.056;3.712;2023-10-09T02:31:10;17.00;99.90
23371;DHT22;11858;51.056;3.712;2023-10-09T02:33:37;16.90;99.90
23371;DHT22;11858;51.056;3.712;2023-10-09T02:36:08;16.90;99.90
23371;DHT22;11858;51.056;3.712;2023-10-09T02:38:34;16.80;99.90
23371;DHT22;11858;51.056;3.712;2023-10-09T02:41:04;16.70;99.90
23371;DHT22;11858;51.056;3.712;2023-10-09T02:43:30;16.70;99.90
23371;DHT22;11858;51.056;3.712;2023-10-09T02:46:01;16.80;99.90
23371;DHT22;11858;51.056;3.712;2023-10-09T02:48:38;16.70;99.90
23371;DHT22;11858;51.056;3.712;2023-10-09T02:51:08;16.70;99.90
23371;DHT22;11858;51.056;3.712;2023-10-09T02:53:40;16.50;99.90
23371;DHT22;11858;51.056;3.712;2023-10-09T02:56:06;16.60;99.90
23371;DHT22;11858;51.056;3.712;2023-10-09T02:58:41;16.40;99.90
23371;DHT22;11858;51.056;3.712;2023-10-09T03:01:12;16.40;99.90
23371;DHT22;11858;51.056;3.712;2023-10-09T03:03:42;16.40;99.90
23371;DHT22;11858;51.056;3.712;2023-10-09T03:06:12;16.30;99.90
23371;DHT22;11858;51.056;3.712;2023-10-09T03:08:38;16.30;99.90
23371;DHT22;11858;51.056;3.712;2023-10-09T03:11:07;16.40;99.90
23371;DHT22;11858;51.056;3.712;2023-10-09T03:13:40;16.40;99.90
23371;DHT22;11858;51.056;3.712;2023-10-09T03:16:08;16.30;99.90
23371;DHT22;11858;51.056;3.712;2023-10-09T03:18:40;16.30;99.90
23371;DHT22;11858;51.056;3.712;2023-10-09T03:21:05;16.30;99.90
23371;DHT22;11858;51.056;3.712;2023-10-09T03:23:31;16.30;99.90
23371;DHT22;11858;51.056;3.712;2023-10-09T03:25:57;16.20;99.90
23371;DHT22;11858;51.056;3.712;2023-10-09T03:28:24;16.30;99.90
23371;DHT22;11858;51.056;3.712;2023-10-09T03:30:50;16.40;99.90
23371;DHT22;11858;51.056;3.712;2023-10-09T03:33:17;16.40;99.90
23371;DHT22;11858;51.056;3.712;2023-10-09T03:35:42;16.40;99.90
23371;DHT22;11858;51.056;3.712;2023-10-09T03:38:08;16.40;99.90
23371;DHT22;11858;51.056;3.712;2023-10-09T03:40:41;16.40;99.90
23371;DHT22;11858;51.056;3.712;2023-10-09T03:43:09;16.40;99.90
23371;DHT22;11858;51.056;3.712;2023-10-09T03:45:36;16.40;99.90
23371;DHT22;11858;51.056;3.712;2023-10-09T03:48:04;16.40;99.90
23371;DHT22;11858;51.056;3.712;2023-10-09T03:50:36;16.40;99.90
23371;DHT22;11858;51.056;3.712;2023-10-09T03:53:04;16.30;99.90
23371;DHT22;11858;51.056;3.712;2023-10-09T03:55:32;16.40;99.90
23371;DHT22;11858;51.056;3.712;2023-10-09T03:57:58;16.30;99.90
23371;DHT22;11858;51.056;3.712;2023-10-09T04:00:27;16.30;99.90
23371;DHT22;11858;51.056;3.712;2023-10-09T04:02:57;16.40;99.90
23371;DHT22;11858;51.056;3.712;2023-10-09T04:05:24;16.40;99.90
23371;DHT22;11858;51.056;3.712;2023-10-09T04:07:51;16.40;99.90
23371;DHT22;11858;51.056;3.712;2023-10-09T04:10:19;16.30;99.90
23371;DHT22;11858;51.056;3.712;2023-10-09T04:13:11;16.30;99.90
23371;DHT22;11858;51.056;3.712;2023-10-09T04:15:42;16.30;99.90
23371;DHT22;11858;51.056;3.712;2023-10-09T04:18:08;16.40;99.90
23371;DHT22;11858;51.056;3.712;2023-10-09T04:20:41;16.40;99.90
23371;DHT22;11858;51.056;3.712;2023-10-09T04:23:25;16.40;99.90
23371;DHT22;11858;51.056;3.712;2023-10-09T04:26:00;16.40;99.90
23371;DHT22;11858;51.056;3.712;2023-10-09T04:28:36;16.40;99.90
23371;DHT22;11858;51.056;3.712;2023-10-09T04:31:02;16.40;99.90
23371;DHT22;11858;51.056;3.712;2023-10-09T04:33:31;16.40;99.90
23371;DHT22;11858;51.056;3.712;2023-10-09T04:36:04;16.40;99.90
23371;DHT22;11858;51.056;3.712;2023-10-09T04:38:49;16.30;99.90
23371;DHT22;11858;51.056;3.712;2023-10-09T04:41:40;16.30;99.90
23371;DHT22;11858;51.056;3.712;2023-10-09T04:44:09;16.30;99.90
23371;DHT22;11858;51.056;3.712;2023-10-09T04:47:01;16.40;99.90
23371;DHT22;11858;51.056;3.712;2023-10-09T04:49:38;16.40;99.90
23371;DHT22;11858;51.056;3.712;2023-10-09T04:52:22;16.50;99.90
23371;DHT22;11858;51.056;3.712;2023-10-09T04:54:53;16.40;99.90
23371;DHT22;11858;51.056;3.712;2023-10-09T04:57:38;16.30;99.90
23371;DHT22;11858;51.056;3.712;2023-10-09T05:00:24;16.40;99.90
23371;DHT22;11858;51.056;3.712;2023-10-09T05:02:51;16.30;99.90
23371;DHT22;11858;51.056;3.712;2023-10-09T05:05:28;16.30;99.90
23371;DHT22;11858;51.056;3.712;2023-10-09T05:08:13;16.20;99.90
23371;DHT22;11858;51.056;3.712;2023-10-09T05:10:49;16.00;99.90
23371;DHT22;11858;51.056;3.712;2023-10-09T05:18:53;16.10;99.90
23371;DHT22;11858;51.056;3.712;2023-10-09T05:21:28;16.10;99.90
23371;DHT22;11858;51.056;3.712;2023-10-09T05:24:03;16.10;99.90
23371;DHT22;11858;51.056;3.712;2023-10-09T05:26:42;16.10;99.90
23371;DHT22;11858;51.056;3.712;2023-10-09T05:29:24;16.10;99.90
23371;DHT22;11858;51.056;3.712;2023-10-09T05:32:04;16.10;99.90
23371;DHT22;11858;51.056;3.712;2023-10-09T05:34:39;16.00;99.90
23371;DHT22;11858;51.056;3.712;2023-10-09T05:37:29;16.00;99.90
23371;DHT22;11858;51.056;3.712;2023-10-09T05:40:02;16.10;99.90
23371;DHT22;11858;51.056;3.712;2023-10-09T05:42:29;16.10;99.90
23371;DHT22;11858;51.056;3.712;2023-10-09T05:47:53;16.00;99.90
23371;DHT22;11858;51.056;3.712;2023-10-09T05:50:23;16.10;99.90
23371;DHT22;11858;51.056;3.712;2023-10-09T05:52:52;16.20;99.90
23371;DHT22;11858;51.056;3.712;2023-10-09T05:55:25;16.20;99.90
23371;DHT22;11858;51.056;3.712;2023-10-09T05:57:56;16.20;99.90
23371;DHT22;11858;51.056;3.712;2023-10-09T06:00:34;16.20;99.90
23371;DHT22;11858;51.056;3.712;2023-10-09T06:03:19;16.10;99.90
23371;DHT22;11858;51.056;3.712;2023-10-09T06:05:52;16.10;99.90
23371;DHT22;11858;51.056;3.712;2023-10-09T06:08:25;16.00;99.90
23371;DHT22;11858;51.056;3.712;2023-10-09T06:10:53;15.90;99.90
23371;DHT22;11858;51.056;3.712;2023-10-09T06:13:39;16.00;99.90
23371;DHT22;11858;51.056;3.712;2023-10-09T06:16:11;16.00;99.90
23371;DHT22;11858;51.056;3.712;2023-10-09T06:18:57;15.90;99.90
23371;DHT22;11858;51.056;3.712;2023-10-09T06:21:41;15.80;99.90
23371;DHT22;11858;51.056;3.712;2023-10-09T06:24:19;15.90;99.90
23371;DHT22;11858;51.056;3.712;2023-10-09T06:26:48;15.80;99.90
23371;DHT22;11858;51.056;3.712;2023-10-09T06:29:41;15.80;99.90
23371;DHT22;11858;51.056;3.712;2023-10-09T06:32:11;15.90;99.90
23371;DHT22;11858;51.056;3.712;2023-10-09T06:34:53;15.90;99.90
23371;DHT22;11858;51.056;3.712;2023-10-09T06:37:23;15.80;99.90
23371;DHT22;11858;51.056;3.712;2023-10-09T06:39:56;15.80;99.90
23371;DHT22;11858;51.056;3.712;2023-10-09T06:42:28;15.80;99.90
23371;DHT22;11858;51.056;3.712;2023-10-09T06:45:10;15.80;99.90
23371;DHT22;11858;51.056;3.712;2023-10-09T06:47:39;15.90;99.90
23371;DHT22;11858;51.056;3.712;2023-10-09T06:50:11;15.90;99.90
23371;DHT22;11858;51.056;3.712;2023-10-09T06:52:47;15.90;99.90
23371;DHT22;11858;51.056;3.712;2023-10-09T06:55:38;15.90;99.90
23371;DHT22;11858;51.056;3.712;2023-10-09T06:58:17;16.00;99.90
23371;DHT22;11858;51.056;3.712;2023-10-09T07:00:54;16.00;99.90
23371;DHT22;11858;51.056;3.712;2023-10-09T07:03:20;16.00;99.90
23371;DHT22;11858;51.056;3.712;2023-10-09T07:06:06;15.90;99.90
23371;DHT22;11858;51.056;3.712;2023-10-09T07:08:38;15.90;99.90
23371;DHT22;11858;51.056;3.712;2023-10-09T07:11:04;15.90;99.90
23371;DHT22;11858;51.056;3.712;2023-10-09T07:13:49;16.10;99.90
23371;DHT22;11858;51.056;3.712;2023-10-09T07:16:24;16.20;99.90
23371;DHT22;11858;51.056;3.712;2023-10-09T07:18:55;16.30;99.90
23371;DHT22;11858;51.056;3.712;2023-10-09T07:21:28;16.50;99.90
23371;DHT22;11858;51.056;3.712;2023-10-09T07:23:55;16.70;99.90
23371;DHT22;11858;51.056;3.712;2023-10-09T07:26:22;16.90;99.90
23371;DHT22;11858;51.056;3.712;2023-10-09T07:29:02;17.20;99.90
23371;DHT22;11858;51.056;3.712;2023-10-09T07:31:42;17.50;99.90
23371;DHT22;11858;51.056;3.712;2023-10-09T07:34:13;18.00;99.90
23371;DHT22;11858;51.056;3.712;2023-10-09T07:37:09;18.30;99.90
23371;DHT22;11858;51.056;3.712;2023-10-09T07:39:35;18.10;99.90
23371;DHT22;11858;51.056;3.712;2023-10-09T07:42:07;17.90;99.90
23371;DHT22;11858;51.056;3.712;2023-10-09T07:44:45;17.70;99.90
23371;DHT22;11858;51.056;3.712;2023-10-09T07:47:18;17.60;99.90
23371;DHT22;11858;51.056;3.712;2023-10-09T07:50:10;17.70;99.90
23371;DHT22;11858;51.056;3.712;2023-10-09T07:52:37;17.60;99.90
23371;DHT22;11858;51.056;3.712;2023-10-09T07:55:09;17.60;99.90
23371;DHT22;11858;51.056;3.712;2023-10-09T07:57:54;17.40;99.90
23371;DHT22;11858;51.056;3.712;2023-10-09T08:00:20;17.60;99.90
23371;DHT22;11858;51.056;3.712;2023-10-09T08:03:04;17.70;99.90
23371;DHT22;11858;51.056;3.712;2023-10-09T08:05:42;17.80;99.90
23371;DHT22;11858;51.056;3.712;2023-10-09T08:08:10;18.00;99.90
23371;DHT22;11858;51.056;3.712;2023-10-09T08:10:53;18.40;99.90
23371;DHT22;11858;51.056;3.712;2023-10-09T08:13:51;19.10;99.90
23371;DHT22;11858;51.056;3.712;2023-10-09T08:16:26;19.60;99.90
23371;DHT22;11858;51.056;3.712;2023-10-09T08:19:03;19.60;99.90
23371;DHT22;11858;51.056;3.712;2023-10-09T08:21:50;19.50;99.90
23371;DHT22;11858;51.056;3.712;2023-10-09T08:24:35;19.20;99.90
23371;DHT22;11858;51.056;3.712;2023-10-09T08:27:06;19.10;99.90
23371;DHT22;11858;51.056;3.712;2023-10-09T08:29:51;18.90;99.90
23371;DHT22;11858;51.056;3.712;2023-10-09T08:32:36;18.90;99.90
23371;DHT22;11858;51.056;3.712;2023-10-09T08:35:06;18.90;99.90
23371;DHT22;11858;51.056;3.712;2023-10-09T08:37:50;19.00;99.90
23371;DHT22;11858;51.056;3.712;2023-10-09T08:40:16;19.20;99.90
23371;DHT22;11858;51.056;3.712;2023-10-09T08:42:53;19.20;99.90
23371;DHT22;11858;51.056;3.712;2023-10-09T08:45:22;19.20;99.90
23371;DHT22;11858;51.056;3.712;2023-10-09T08:47:52;19.10;99.90
23371;DHT22;11858;51.056;3.712;2023-10-09T08:50:20;19.30;99.90
23371;DHT22;11858;51.056;3.712;2023-10-09T08:52:49;19.30;99.90
23371;DHT22;11858;51.056;3.712;2023-10-09T08:55:16;19.20;99.90
23371;DHT22;11858;51.056;3.712;2023-10-09T08:57:44;19.30;99.90
23371;DHT22;11858;51.056;3.712;2023-10-09T09:00:20;19.20;99.90
23371;DHT22;11858;51.056;3.712;2023-10-09T09:02:58;19.30;99.90
23371;DHT22;11858;51.056;3.712;2023-10-09T09:05:27;19.50;99.90
23371;DHT22;11858;51.056;3.712;2023-10-09T09:07:54;19.40;99.90
23371;DHT22;11858;51.056;3.712;2023-10-09T09:10:31;19.40;99.90
23371;DHT22;11858;51.056;3.712;2023-10-09T09:13:04;19.50;99.90
23371;DHT22;11858;51.056;3.712;2023-10-09T09:15:32;19.50;99.90
23371;DHT22;11858;51.056;3.712;2023-10-09T09:18:05;19.60;99.90
23371;DHT22;11858;51.056;3.712;2023-10-09T09:20:32;19.60;99.90
23371;DHT22;11858;51.056;3.712;2023-10-09T09:23:02;19.70;99.90
23371;DHT22;11858;51.056;3.712;2023-10-09T09:25:42;19.90;99.90
23371;DHT22;11858;51.056;3.712;2023-10-09T09:28:10;19.90;99.90
23371;DHT22;11858;51.056;3.712;2023-10-09T09:30:38;19.80;99.90
23371;DHT22;11858;51.056;3.712;2023-10-09T09:33:28;19.60;99.90
23371;DHT22;11858;51.056;3.712;2023-10-09T09:36:06;19.60;99.90
23371;DHT22;11858;51.056;3.712;2023-10-09T09:38:34;19.50;99.90
23371;DHT22;11858;51.056;3.712;2023-10-09T09:41:21;19.60;99.90
23371;DHT22;11858;51.056;3.712;2023-10-09T09:43:57;19.70;99.90
23371;DHT22;11858;51.056;3.712;2023-10-09T09:46:32;19.70;99.90
23371;DHT22;11858;51.056;3.712;2023-10-09T09:49:03;19.60;99.90
23371;DHT22;11858;51.056;3.712;2023-10-09T09:51:31;19.70;99.90
23371;DHT22;11858;51.056;3.712;2023-10-09T09:53:57;19.80;99.90
23371;DHT22;11858;51.056;3.712;2023-10-09T09:56:26;19.90;99.90
23371;DHT22;11858;51.056;3.712;2023-10-09T09:58:56;19.90;99.90
23371;DHT22;11858;51.056;3.712;2023-10-09T10:01:29;20.00;99.90
23371;DHT22;11858;51.056;3.712;2023-10-09T10:04:07;20.30;99.90
23371;DHT22;11858;51.056;3.712;2023-10-09T10:06:40;20.50;99.90
23371;DHT22;11858;51.056;3.712;2023-10-09T10:09:10;20.50;99.90
23371;DHT22;11858;51.056;3.712;2023-10-09T10:11:48;20.50;99.90
23371;DHT22;11858;51.056;3.712;2023-10-09T10:14:20;20.60;99.90
23371;DHT22;11858;51.056;3.712;2023-10-09T10:17:01;20.80;99.90
23371;DHT22;11858;51.056;3.712;2023-10-09T10:22:30;21.20;99.90
23371;DHT22;11858;51.056;3.712;2023-10-09T10:24:56;21.10;99.90
23371;DHT22;11858;51.056;3.712;2023-10-09T10:27:35;21.00;99.90
23371;DHT22;11858;51.056;3.712;2023-10-09T10:33:08;21.10;99.90
23371;DHT22;11858;51.056;3.712;2023-10-09T10:35:48;21.20;99.90
23371;DHT22;11858;51.056;3.712;2023-10-09T10:38:31;21.20;99.90
23371;DHT22;11858;51.056;3.712;2023-10-09T10:41:18;21.20;99.90
23371;DHT22;11858;51.056;3.712;2023-10-09T10:43:48;21.30;99.90
23371;DHT22;11858;51.056;3.712;2023-10-09T10:46:16;21.50;99.90
23371;DHT22;11858;51.056;3.712;2023-10-09T10:49:04;21.70;99.90
23371;DHT22;11858;51.056;3.712;2023-10-09T10:51:45;22.00;99.90
23371;DHT22;11858;51.056;3.712;2023-10-09T10:54:25;22.30;99.90
23371;DHT22;11858;51.056;3.712;2023-10-09T10:57:02;22.50;99.90
23371;DHT22;11858;51.056;3.712;2023-10-09T10:59:40;22.60;99.90
23371;DHT22;11858;51.056;3.712;2023-10-09T11:02:11;22.80;99.90
23371;DHT22;11858;51.056;3.712;2023-10-09T11:04:38;23.10;99.90
23371;DHT22;11858;51.056;3.712;2023-10-09T11:07:06;23.00;99.90
23371;DHT22;11858;51.056;3.712;2023-10-09T11:09:54;22.80;99.90
23371;DHT22;11858;51.056;3.712;2023-10-09T11:15:07;22.90;99.90
23371;DHT22;11858;51.056;3.712;2023-10-09T11:18:03;23.10;99.90
23371;DHT22;11858;51.056;3.712;2023-10-09T11:20:43;23.20;99.90
23371;DHT22;11858;51.056;3.712;2023-10-09T11:23:22;23.60;99.90
23371;DHT22;11858;51.056;3.712;2023-10-09T11:25:55;23.80;99.90
23371;DHT22;11858;51.056;3.712;2023-10-09T11:28:41;24.20;99.90
23371;DHT22;11858;51.056;3.712;2023-10-09T11:31:23;24.20;99.90
23371;DHT22;11858;51.056;3.712;2023-10-09T11:33:50;24.00;99.90
23371;DHT22;11858;51.056;3.712;2023-10-09T11:36:20;24.00;99.90
23371;DHT22;11858;51.056;3.712;2023-10-09T11:39:00;24.40;99.90
23371;DHT22;11858;51.056;3.712;2023-10-09T11:41:47;24.70;99.90
23371;DHT22;11858;51.056;3.712;2023-10-09T11:44:15;24.80;99.90
23371;DHT22;11858;51.056;3.712;2023-10-09T11:47:00;24.90;99.90
23371;DHT22;11858;51.056;3.712;2023-10-09T11:49:51;24.60;99.90
23371;DHT22;11858;51.056;3.712;2023-10-09T11:52:27;24.50;99.90
23371;DHT22;11858;51.056;3.712;2023-10-09T11:55:04;24.80;99.90
23371;DHT22;11858;51.056;3.712;2023-10-09T11:57:32;25.10;99.90
23371;DHT22;11858;51.056;3.712;2023-10-09T12:00:04;25.20;99.90
23371;DHT22;11858;51.056;3.712;2023-10-09T12:03:02;25.50;99.90
23371;DHT22;11858;51.056;3.712;2023-10-09T12:05:31;25.50;99.90
23371;DHT22;11858;51.056;3.712;2023-10-09T12:07:57;25.30;99.90
23371;DHT22;11858;51.056;3.712;2023-10-09T12:10:24;25.50;99.90
23371;DHT22;11858;51.056;3.712;2023-10-09T12:12:54;25.50;99.90
23371;DHT22;11858;51.056;3.712;2023-10-09T12:15:23;25.20;99.90
23371;DHT22;11858;51.056;3.712;2023-10-09T12:17:49;25.10;99.90
23371;DHT22;11858;51.056;3.712;2023-10-09T12:20:19;24.90;99.90
23371;DHT22;11858;51.056;3.712;2023-10-09T12:22:58;24.90;99.90
23371;DHT22;11858;51.056;3.712;2023-10-09T12:25:25;24.80;99.90
23371;DHT22;11858;51.056;3.712;2023-10-09T12:27:51;24.50;99.90
23371;DHT22;11858;51.056;3.712;2023-10-09T12:30:23;24.40;99.90
23371;DHT22;11858;51.056;3.712;2023-10-09T12:32:53;24.40;99.90
23371;DHT22;11858;51.056;3.712;2023-10-09T12:35:20;24.40;99.90
23371;DHT22;11858;51.056;3.712;2023-10-09T12:37:45;24.60;99.90
23371;DHT22;11858;51.056;3.712;2023-10-09T12:40:12;24.30;99.90
23371;DHT22;11858;51.056;3.712;2023-10-09T12:42:38;24.20;99.90
23371;DHT22;11858;51.056;3.712;2023-10-09T12:45:04;24.20;99.90
23371;DHT22;11858;51.056;3.712;2023-10-09T12:47:34;24.20;99.90
23371;DHT22;11858;51.056;3.712;2023-10-09T12:50:04;24.30;99.90
23371;DHT22;11858;51.056;3.712;2023-10-09T12:52:35;24.40;99.90
23371;DHT22;11858;51.056;3.712;2023-10-09T12:55:03;24.40;99.90
23371;DHT22;11858;51.056;3.712;2023-10-09T12:57:35;24.50;99.90
23371;DHT22;11858;51.056;3.712;2023-10-09T13:00:02;24.50;99.90
23371;DHT22;11858;51.056;3.712;2023-10-09T13:02:36;24.60;99.90
23371;DHT22;11858;51.056;3.712;2023-10-09T13:05:02;24.60;99.90
23371;DHT22;11858;51.056;3.712;2023-10-09T13:07:30;25.00;99.90
23371;DHT22;11858;51.056;3.712;2023-10-09T13:09:56;25.60;99.90
23371;DHT22;11858;51.056;3.712;2023-10-09T13:12:36;26.10;99.90
23371;DHT22;11858;51.056;3.712;2023-10-09T13:15:10;26.70;99.90
23371;DHT22;11858;51.056;3.712;2023-10-09T13:17:37;26.80;99.90
23371;DHT22;11858;51.056;3.712;2023-10-09T13:20:04;26.80;99.90
23371;DHT22;11858;51.056;3.712;2023-10-09T13:22:41;26.80;99.90
23371;DHT22;11858;51.056;3.712;2023-10-09T13:25:11;27.30;99.90
23371;DHT22;11858;51.056;3.712;2023-10-09T13:27:45;28.20;99.90
23371;DHT22;11858;51.056;3.712;2023-10-09T13:30:17;28.30;99.90
23371;DHT22;11858;51.056;3.712;2023-10-09T13:32:48;28.20;99.90
23371;DHT22;11858;51.056;3.712;2023-10-09T13:35:16;27.90;99.90
23371;DHT22;11858;51.056;3.712;2023-10-09T13:37:42;27.90;99.90
23371;DHT22;11858;51.056;3.712;2023-10-09T13:40:09;27.60;99.90
23371;DHT22;11858;51.056;3.712;2023-10-09T13:42:37;27.20;99.90
23371;DHT22;11858;51.056;3.712;2023-10-09T13:45:03;27.00;99.90
23371;DHT22;11858;51.056;3.712;2023-10-09T13:47:42;27.10;99.90
23371;DHT22;11858;51.056;3.712;2023-10-09T13:50:10;27.10;99.90
23371;DHT22;11858;51.056;3.712;2023-10-09T13:52:36;26.50;99.90
23371;DHT22;11858;51.056;3.712;2023-10-09T13:55:08;26.10;99.90
23371;DHT22;11858;51.056;3.712;2023-10-09T13:57:43;25.70;99.90
23371;DHT22;11858;51.056;3.712;2023-10-09T14:00:16;25.80;99.90
23371;DHT22;11858;51.056;3.712;2023-10-09T14:03:02;25.50;99.90
23371;DHT22;11858;51.056;3.712;2023-10-09T14:05:37;25.30;99.90
23371;DHT22;11858;51.056;3.712;2023-10-09T14:08:10;25.30;99.90
23371;DHT22;11858;51.056;3.712;2023-10-09T14:10:37;25.40;99.90
23371;DHT22;11858;51.056;3.712;2023-10-09T14:13:04;25.30;99.90
23371;DHT22;11858;51.056;3.712;2023-10-09T14:15:37;25.40;99.90
23371;DHT22;11858;51.056;3.712;2023-10-09T14:18:07;25.30;99.90
23371;DHT22;11858;51.056;3.712;2023-10-09T14:20:34;24.90;99.90
23371;DHT22;11858;51.056;3.712;2023-10-09T14:23:01;24.90;99.90
23371;DHT22;11858;51.056;3.712;2023-10-09T14:25:39;24.90;99.90
23371;DHT22;11858;51.056;3.712;2023-10-09T14:28:14;24.70;99.90
23371;DHT22;11858;51.056;3.712;2023-10-09T14:30:44;24.70;99.90
23371;DHT22;11858;51.056;3.712;2023-10-09T14:33:14;24.70;99.90
23371;DHT22;11858;51.056;3.712;2023-10-09T14:35:48;24.90;99.90
23371;DHT22;11858;51.056;3.712;2023-10-09T14:38:14;24.70;99.90
23371;DHT22;11858;51.056;3.712;2023-10-09T14:40:44;24.90;99.90
23371;DHT22;11858;51.056;3.712;2023-10-09T14:43:11;24.90;99.90
23371;DHT22;11858;51.056;3.712;2023-10-09T14:45:47;24.50;99.90
23371;DHT22;11858;51.056;3.712;2023-10-09T14:48:15;24.30;99.90
23371;DHT22;11858;51.056;3.712;2023-10-09T14:50:50;24.20;99.90
23371;DHT22;11858;51.056;3.712;2023-10-09T14:53:19;24.30;99.90
23371;DHT22;11858;51.056;3.712;2023-10-09T14:55:45;24.40;99.90
23371;DHT22;11858;51.056;3.712;2023-10-09T14:58:13;24.40;99.90
23371;DHT22;11858;51.056;3.712;2023-10-09T15:00:39;24.60;99.90
23371;DHT22;11858;51.056;3.712;2023-10-09T15:03:12;24.60;99.90
23371;DHT22;11858;51.056;3.712;2023-10-09T15:05:43;24.70;99.90
23371;DHT22;11858;51.056;3.712;2023-10-09T15:08:09;24.90;99.90
23371;DHT22;11858;51.056;3.712;2023-10-09T15:10:47;25.00;99.90
23371;DHT22;11858;51.056;3.712;2023-10-09T15:13:14;25.20;99.90
23371;DHT22;11858;51.056;3.712;2023-10-09T15:15:42;25.30;99.90
23371;DHT22;11858;51.056;3.712;2023-10-09T15:18:08;26.10;99.90
23371;DHT22;11858;51.056;3.712;2023-10-09T15:20:38;26.40;99.90
23371;DHT22;11858;51.056;3.712;2023-10-09T15:23:06;26.50;99.90
23371;DHT22;11858;51.056;3.712;2023-10-09T15:25:32;26.80;99.90
23371;DHT22;11858;51.056;3.712;2023-10-09T15:28:00;26.90;99.90
23371;DHT22;11858;51.056;3.712;2023-10-09T15:30:26;26.90;99.90
23371;DHT22;11858;51.056;3.712;2023-10-09T15:32:53;27.00;99.90
23371;DHT22;11858;51.056;3.712;2023-10-09T15:35:22;27.20;99.90
23371;DHT22;11858;51.056;3.712;2023-10-09T15:37:48;26.90;99.90
23371;DHT22;11858;51.056;3.712;2023-10-09T15:40:13;27.00;99.90
23371;DHT22;11858;51.056;3.712;2023-10-09T15:42:44;26.00;99.90
23371;DHT22;11858;51.056;3.712;2023-10-09T15:45:15;25.20;99.90
23371;DHT22;11858;51.056;3.712;2023-10-09T15:47:41;25.00;99.90
23371;DHT22;11858;51.056;3.712;2023-10-09T15:50:09;24.50;99.90
23371;DHT22;11858;51.056;3.712;2023-10-09T15:52:37;24.30;99.90
23371;DHT22;11858;51.056;3.712;2023-10-09T15:55:04;24.00;99.90
23371;DHT22;11858;51.056;3.712;2023-10-09T15:57:39;23.70;99.90
23371;DHT22;11858;51.056;3.712;2023-10-09T16:00:06;23.40;99.90
23371;DHT22;11858;51.056;3.712;2023-10-09T16:02:42;23.40;99.90
23371;DHT22;11858;51.056;3.712;2023-10-09T16:05:09;23.30;99.90
23371;DHT22;11858;51.056;3.712;2023-10-09T16:07:40;23.40;99.90
23371;DHT22;11858;51.056;3.712;2023-10-09T16:10:06;23.30;99.90
23371;DHT22;11858;51.056;3.712;2023-10-09T16:12:34;23.10;99.90
23371;DHT22;11858;51.056;3.712;2023-10-09T16:15:00;23.00;99.90
23371;DHT22;11858;51.056;3.712;2023-10-09T16:17:26;22.90;99.90
23371;DHT22;11858;51.056;3.712;2023-10-09T16:19:52;22.80;99.90
23371;DHT22;11858;51.056;3.712;2023-10-09T16:22:18;22.80;99.90
23371;DHT22;11858;51.056;3.712;2023-10-09T16:24:44;22.70;99.90
23371;DHT22;11858;51.056;3.712;2023-10-09T16:27:12;22.70;99.90